createdAt,value
2018-09-22T00:00:55.820Z,96039.6
2018-09-22T00:01:58.265Z,96037.6
2018-09-22T00:03:00.706Z,96037.9
2018-09-22T00:04:02.903Z,96039.1
2018-09-22T00:05:05.069Z,96042.8
2018-09-22T00:06:07.498Z,96039.9
2018-09-22T00:07:09.934Z,96043.1
2018-09-22T00:08:12.364Z,96052.3
2018-09-22T00:09:14.851Z,96055
2018-09-22T00:10:17.286Z,96058.3
2018-09-22T00:11:19.441Z,96059.6
2018-09-22T00:12:21.876Z,96059.6
2018-09-22T00:13:24.309Z,96059.2
2018-09-22T00:14:26.777Z,96059.9
2018-09-22T00:15:29.212Z,96060
2018-09-22T00:16:31.646Z,96064.6
2018-09-22T00:17:33.776Z,96066
2018-09-22T00:18:36.215Z,96063.6
2018-09-22T00:19:38.645Z,96062.3
2018-09-22T00:20:41.132Z,96062.2
2018-09-22T00:21:43.685Z,96067.6
2018-09-22T00:22:46.182Z,96065.1
2018-09-22T00:23:48.620Z,96069.7
2018-09-22T00:24:51.047Z,96067.3
2018-09-22T00:25:53.187Z,96060
2018-09-22T00:26:55.626Z,96066.6
2018-09-22T00:27:58.058Z,96063.6
2018-09-22T00:29:00.487Z,96065
2018-09-22T00:30:02.924Z,96069.5
2018-09-22T00:31:05.066Z,96072.6
2018-09-22T00:32:07.225Z,96073.2
2018-09-22T00:33:09.397Z,96069.2
2018-09-22T00:34:11.834Z,96061.3
2018-09-22T00:35:14.259Z,96057.3
2018-09-22T00:36:16.687Z,96052
2018-09-22T00:37:19.131Z,96056.3
2018-09-22T00:38:21.554Z,96059
2018-09-22T00:39:23.988Z,96060.9
2018-09-22T00:40:26.436Z,96062.6
2018-09-22T00:41:28.867Z,96058.3
2018-09-22T00:42:31.296Z,96062.5
2018-09-22T00:43:33.725Z,96067.8
2018-09-22T00:44:36.173Z,96071.9
2018-09-22T00:45:38.607Z,96069.8
2018-09-22T00:46:41.040Z,96061.3
2018-09-22T00:47:43.477Z,96062.5
2018-09-22T00:48:45.907Z,96061.1
2018-09-22T00:49:48.337Z,96064.1
2018-09-22T00:50:50.513Z,96065.5
2018-09-22T00:51:52.946Z,96067.3
2018-09-22T00:52:55.376Z,96063.3
2018-09-22T00:53:57.808Z,96063.3
2018-09-22T00:54:59.955Z,96067.1
2018-09-22T00:56:02.384Z,96072
2018-09-22T00:57:04.562Z,96066.9
2018-09-22T00:58:06.993Z,96071.5
2018-09-22T00:59:09.163Z,96069.8
2018-09-22T01:00:11.593Z,96072.4
2018-09-22T01:01:14.061Z,96072.8
2018-09-22T01:02:16.503Z,96077.6
2018-09-22T01:03:18.933Z,96081.8
2018-09-22T01:04:21.358Z,96078.6
2018-09-22T01:05:23.787Z,96079.7
2018-09-22T01:06:26.213Z,96077.8
2018-09-22T01:07:28.647Z,96081.8
2018-09-22T01:08:31.081Z,96075.8
2018-09-22T01:09:33.503Z,96083
2018-09-22T01:10:35.930Z,96083.1
2018-09-22T01:11:38.365Z,96082.6
2018-09-22T01:12:40.796Z,96080.1
2018-09-22T01:13:43.229Z,96079.7
2018-09-22T01:14:45.664Z,96082.6
2018-09-22T01:15:48.252Z,96089.1
2018-09-22T01:16:50.433Z,96086.7
2018-09-22T01:17:52.584Z,96085.6
2018-09-22T01:18:55.053Z,96084.4
2018-09-22T01:19:57.488Z,96084.3
2018-09-22T01:20:59.919Z,96083.1
2018-09-22T01:22:02.344Z,96087.3
2018-09-22T01:23:04.787Z,96082.8
2018-09-22T01:24:07.233Z,96087.9
2018-09-22T01:25:09.393Z,96085.5
2018-09-22T01:26:11.829Z,96089.2
2018-09-22T01:27:14.274Z,96099.8
2018-09-22T01:28:16.714Z,96100.6
2018-09-22T01:29:19.146Z,96105.8
2018-09-22T01:30:21.572Z,96110.9
2018-09-22T01:31:24.016Z,96114.6
2018-09-22T01:32:26.452Z,96109.9
2018-09-22T01:33:28.885Z,96108
2018-09-22T01:34:31.076Z,96108.7
2018-09-22T01:35:33.502Z,96110.2
2018-09-22T01:36:35.934Z,96109.7
2018-09-22T01:37:38.366Z,96108.9
2018-09-22T01:38:40.798Z,96106
2018-09-22T01:39:43.231Z,96104.5
2018-09-22T01:40:45.665Z,96105.4
2018-09-22T01:41:47.830Z,96103.7
2018-09-22T01:42:50.260Z,96104.6
2018-09-22T01:43:52.386Z,96106
2018-09-22T01:44:54.815Z,96104.4
2018-09-22T01:45:57.241Z,96103.5
2018-09-22T01:46:59.742Z,96101.2
2018-09-22T01:48:01.848Z,96103.2
2018-09-22T01:49:04.277Z,96109.7
2018-09-22T01:50:06.425Z,96113.4
2018-09-22T01:51:08.858Z,96119
2018-09-22T01:52:11.296Z,96117.9
2018-09-22T01:53:13.732Z,96118.1
2018-09-22T01:54:16.167Z,96116.3
2018-09-22T01:55:18.595Z,96112
2018-09-22T01:56:21.031Z,96116.5
2018-09-22T01:57:23.485Z,96117.4
2018-09-22T01:58:25.916Z,96119.2
2018-09-22T01:59:28.348Z,96116.8
2018-09-22T02:00:30.487Z,96114.4
2018-09-22T02:01:32.916Z,96114.2
2018-09-22T02:02:35.351Z,96118.6
2018-09-22T02:03:37.781Z,96120.3
2018-09-22T02:04:40.222Z,96125
2018-09-22T02:05:42.398Z,96123.9
2018-09-22T02:06:44.827Z,96121.6
2018-09-22T02:07:47.256Z,96121.1
2018-09-22T02:08:49.686Z,96126.8
2018-09-22T02:09:52.115Z,96129
2018-09-22T02:10:54.544Z,96131.3
2018-09-22T02:11:56.986Z,96131.2
2018-09-22T02:12:59.420Z,96135.8
2018-09-22T02:14:01.855Z,96144.2
2018-09-22T02:15:04.287Z,96144
2018-09-22T02:16:06.170Z,96143.2
2018-09-22T02:17:08.592Z,96141.7
2018-09-22T02:18:11.020Z,96138.9
2018-09-22T02:19:13.447Z,96144.9
2018-09-22T02:20:15.876Z,96140.1
2018-09-22T02:21:18.305Z,96134.3
2018-09-22T02:22:20.456Z,96129.2
2018-09-22T02:23:22.883Z,96135.3
2018-09-22T02:24:25.326Z,96137.4
2018-09-22T02:25:27.770Z,96136.4
2018-09-22T02:26:30.210Z,96140.8
2018-09-22T02:27:32.646Z,96146.2
2018-09-22T02:28:34.535Z,96142.1
2018-09-22T02:29:36.975Z,96140.2
2018-09-22T02:30:39.408Z,96140.8
2018-09-22T02:31:41.581Z,96133.4
2018-09-22T02:32:44.004Z,96131.2
2018-09-22T02:33:46.431Z,96143.6
2018-09-22T02:34:48.866Z,96138.9
2018-09-22T02:35:51.296Z,96145.1
2018-09-22T02:36:53.730Z,96144.6
2018-09-22T02:37:56.154Z,96142.5
2018-09-22T02:38:58.313Z,96140.4
2018-09-22T02:40:00.739Z,96139.1
2018-09-22T02:41:03.167Z,96148.5
2018-09-22T02:42:05.602Z,96144.6
2018-09-22T02:43:08.035Z,96141.6
2018-09-22T02:44:10.195Z,96137.7
2018-09-22T02:45:12.347Z,96140.1
2018-09-22T02:46:14.777Z,96147
2018-09-22T02:47:17.204Z,96153.1
2018-09-22T02:48:19.654Z,96146
2018-09-22T02:49:22.077Z,96149
2018-09-22T02:50:24.508Z,96156.1
2018-09-22T02:51:26.936Z,96160.9
2018-09-22T02:52:29.380Z,96164.8
2018-09-22T02:53:31.542Z,96158.3
2018-09-22T02:54:33.965Z,96157.4
2018-09-22T02:55:36.094Z,96156.4
2018-09-22T02:56:38.527Z,96150.3
2018-09-22T02:57:40.952Z,96148.8
2018-09-22T02:58:43.378Z,96149.6
2018-09-22T02:59:45.511Z,96148
2018-09-22T03:00:47.941Z,96155.9
2018-09-22T03:01:50.380Z,96155.5
2018-09-22T03:02:52.806Z,96160.1
2018-09-22T03:03:55.233Z,96160.2
2018-09-22T03:04:57.670Z,96157.9
2018-09-22T03:05:59.811Z,96158.6
2018-09-22T03:07:02.244Z,96153.7
2018-09-22T03:08:04.671Z,96149.3
2018-09-22T03:09:07.114Z,96149.1
2018-09-22T03:10:09.547Z,96143.7
2018-09-22T03:11:11.972Z,96134.5
2018-09-22T03:12:14.398Z,96133.4
2018-09-22T03:13:16.844Z,96135.1
2018-09-22T03:14:19.281Z,96134.5
2018-09-22T03:15:22.024Z,96135.3
2018-09-22T03:16:24.563Z,96133.9
2018-09-22T03:17:27.029Z,96128.5
2018-09-22T03:18:29.463Z,96136.3
2018-09-22T03:19:31.895Z,96134.8
2018-09-22T03:20:34.326Z,96139.3
2018-09-22T03:21:36.756Z,96147.7
2018-09-22T03:22:39.188Z,96150.8
2018-09-22T03:23:41.621Z,96150
2018-09-22T03:24:44.065Z,96149.5
2018-09-22T03:25:46.225Z,96145.5
2018-09-22T03:26:48.385Z,96145.3
2018-09-22T03:27:50.545Z,96145.7
2018-09-22T03:28:52.977Z,96145.3
2018-09-22T03:29:55.453Z,96154.4
2018-09-22T03:30:57.891Z,96153.4
2018-09-22T03:32:00.327Z,96157.7
2018-09-22T03:33:02.762Z,96156.8
2018-09-22T03:34:05.194Z,96158
2018-09-22T03:35:07.664Z,96162.6
2018-09-22T03:36:10.084Z,96169.9
2018-09-22T03:37:12.530Z,96175.8
2018-09-22T03:38:14.729Z,96176.7
2018-09-22T03:39:17.157Z,96176.8
2018-09-22T03:40:19.597Z,96183.9
2018-09-22T03:41:21.753Z,96187.9
2018-09-22T03:42:24.174Z,96190.2
2018-09-22T03:43:26.606Z,96191.7
2018-09-22T03:44:29.036Z,96191.3
2018-09-22T03:45:31.468Z,96190.9
2018-09-22T03:46:33.908Z,96188.7
2018-09-22T03:47:36.353Z,96186.6
2018-09-22T03:48:38.792Z,96179.2
2018-09-22T03:49:41.223Z,96171.7
2018-09-22T03:50:43.652Z,96170.2
2018-09-22T03:51:46.075Z,96165
2018-09-22T03:52:48.508Z,96167.7
2018-09-22T03:53:50.946Z,96171.2
2018-09-22T03:54:53.385Z,96177.3
2018-09-22T03:55:55.816Z,96181.7
2018-09-22T03:56:58.242Z,96184.4
2018-09-22T03:58:00.686Z,96195.6
2018-09-22T03:59:03.163Z,96198
2018-09-22T04:00:05.595Z,96204
2018-09-22T04:01:08.027Z,96195
2018-09-22T04:02:10.465Z,96191.3
2018-09-22T04:03:12.903Z,96192.6
2018-09-22T04:04:15.334Z,96182.4
2018-09-22T04:05:17.779Z,96176.5
2018-09-22T04:06:20.210Z,96174.7
2018-09-22T04:07:22.374Z,96168.5
2018-09-22T04:08:24.814Z,96163.8
2018-09-22T04:09:27.244Z,96162.9
2018-09-22T04:10:29.674Z,96163.6
2018-09-22T04:11:32.109Z,96157
2018-09-22T04:12:34.543Z,96153.3
2018-09-22T04:13:36.976Z,96151.8
2018-09-22T04:14:39.406Z,96152.3
2018-09-22T04:15:41.837Z,96150.3
2018-09-22T04:16:44.265Z,96148.5
2018-09-22T04:17:46.692Z,96148
2018-09-22T04:18:49.117Z,96155.3
2018-09-22T04:19:51.539Z,96157.3
2018-09-22T04:20:53.706Z,96149.7
2018-09-22T04:21:56.135Z,96152.3
2018-09-22T04:22:58.577Z,96156.4
2018-09-22T04:24:01.035Z,96157.8
2018-09-22T04:25:03.191Z,96159.7
2018-09-22T04:26:05.620Z,96160.3
2018-09-22T04:27:08.052Z,96160.5
2018-09-22T04:28:10.481Z,96160.8
2018-09-22T04:29:12.354Z,96165.3
2018-09-22T04:30:14.497Z,96165.1
2018-09-22T04:31:16.943Z,96158.7
2018-09-22T04:32:19.378Z,96163.4
2018-09-22T04:33:22.070Z,96162.6
2018-09-22T04:34:24.687Z,96169.9
2018-09-22T04:35:26.849Z,96172.2
2018-09-22T04:36:29.015Z,96169.9
2018-09-22T04:37:31.147Z,96165.3
2018-09-22T04:38:33.584Z,96160.8
2018-09-22T04:39:36.016Z,96157
2018-09-22T04:40:38.447Z,96165.6
2018-09-22T04:41:40.887Z,96168.2
2018-09-22T04:42:43.322Z,96170.9
2018-09-22T04:43:45.501Z,96169.3
2018-09-22T04:44:47.928Z,96162.6
2018-09-22T04:45:50.368Z,96167.7
2018-09-22T04:46:52.805Z,96175.9
2018-09-22T04:47:55.241Z,96179.9
2018-09-22T04:48:57.663Z,96177.9
2018-09-22T04:50:00.088Z,96183.3
2018-09-22T04:51:02.514Z,96178.1
2018-09-22T04:52:04.950Z,96181.6
2018-09-22T04:53:07.379Z,96179.2
2018-09-22T04:54:09.816Z,96183.4
2018-09-22T04:55:12.252Z,96183.3
2018-09-22T04:56:14.685Z,96184.2
2018-09-22T04:57:17.122Z,96185.3
2018-09-22T04:58:19.548Z,96184.6
2018-09-22T04:59:21.710Z,96186.2
2018-09-22T05:00:24.143Z,96184.5
2018-09-22T05:01:26.579Z,96189.7
2018-09-22T05:02:29.009Z,96189.5
2018-09-22T05:03:31.436Z,96196.2
2018-09-22T05:04:33.870Z,96195
2018-09-22T05:05:36.297Z,96201.9
2018-09-22T05:06:38.727Z,96207.8
2018-09-22T05:07:40.895Z,96211.2
2018-09-22T05:08:43.063Z,96207.5
2018-09-22T05:09:45.499Z,96212
2018-09-22T05:10:47.927Z,96216.8
2018-09-22T05:11:50.368Z,96216
2018-09-22T05:12:52.808Z,96216.3
2018-09-22T05:13:55.254Z,96215
2018-09-22T05:14:57.674Z,96208.7
2018-09-22T05:15:59.858Z,96206.3
2018-09-22T05:17:02.523Z,96209.5
2018-09-22T05:18:04.760Z,96208.7
2018-09-22T05:19:07.200Z,96204.6
2018-09-22T05:20:09.638Z,96199
2018-09-22T05:21:12.069Z,96200.7
2018-09-22T05:22:14.508Z,96196.8
2018-09-22T05:23:16.665Z,96196.5
2018-09-22T05:24:19.106Z,96198.9
2018-09-22T05:25:21.535Z,96194.4
2018-09-22T05:26:23.686Z,96193.6
2018-09-22T05:27:26.119Z,96195.4
2018-09-22T05:28:28.279Z,96191.3
2018-09-22T05:29:30.717Z,96194.2
2018-09-22T05:30:33.157Z,96192.3
2018-09-22T05:31:35.319Z,96191.3
2018-09-22T05:32:37.457Z,96192.5
2018-09-22T05:33:39.898Z,96193.5
2018-09-22T05:34:42.349Z,96192.1
2018-09-22T05:35:44.771Z,96193.6
2018-09-22T05:36:46.916Z,96190.8
2018-09-22T05:37:49.344Z,96193.5
2018-09-22T05:38:51.775Z,96188
2018-09-22T05:39:54.205Z,96189.1
2018-09-22T05:40:56.644Z,96184.9
2018-09-22T05:41:59.076Z,96186.6
2018-09-22T05:43:01.506Z,96192.6
2018-09-22T05:44:03.947Z,96184.5
2018-09-22T05:45:06.101Z,96178.8
2018-09-22T05:46:08.253Z,96179.3
2018-09-22T05:47:10.398Z,96180.2
2018-09-22T05:48:12.846Z,96184.5
2018-09-22T05:49:15.278Z,96185.2
2018-09-22T05:50:17.709Z,96186.9
2018-09-22T05:51:20.162Z,96196.3
2018-09-22T05:52:22.597Z,96200.9
2018-09-22T05:53:25.031Z,96198.7
2018-09-22T05:54:27.483Z,96199.3
2018-09-22T05:55:29.911Z,96193.5
2018-09-22T05:56:32.343Z,96194.1
2018-09-22T05:57:34.780Z,96195.5
2018-09-22T05:58:36.651Z,96199.2
2018-09-22T05:59:39.074Z,96198.6
2018-09-22T06:00:41.499Z,96204.1
2018-09-22T06:01:43.945Z,96196.1
2018-09-22T06:02:46.378Z,96195.2
2018-09-22T06:03:49.599Z,96193.8
2018-09-22T06:04:52.409Z,96189.2
2018-09-22T06:05:54.837Z,96193.7
2018-09-22T06:06:57.273Z,96191.4
2018-09-22T06:07:59.766Z,96194.8
2018-09-22T06:09:02.187Z,96190.1
2018-09-22T06:10:04.619Z,96189.6
2018-09-22T06:11:07.056Z,96196.2
2018-09-22T06:12:09.502Z,96191.1
2018-09-22T06:13:11.934Z,96193.9
2018-09-22T06:14:14.366Z,96189.8
2018-09-22T06:15:16.526Z,96194.6
2018-09-22T06:16:18.975Z,96193.2
2018-09-22T06:17:21.422Z,96195.5
2018-09-22T06:18:23.854Z,96187.1
2018-09-22T06:19:26.290Z,96185.6
2018-09-22T06:20:28.727Z,96186.1
2018-09-22T06:21:31.228Z,96187.6
2018-09-22T06:22:33.697Z,96193.5
2018-09-22T06:23:36.562Z,96192.7
2018-09-22T06:24:39.140Z,96194
2018-09-22T06:25:41.583Z,96193.4
2018-09-22T06:26:44.027Z,96196.2
2018-09-22T06:27:46.454Z,96201.9
2018-09-22T06:28:49.240Z,96203.1
2018-09-22T06:29:51.423Z,96205.2
2018-09-22T06:30:53.593Z,96201.2
2018-09-22T06:31:56.040Z,96199.6
2018-09-22T06:32:58.488Z,96197.5
2018-09-22T06:34:00.915Z,96198.1
2018-09-22T06:35:03.347Z,96201.8
2018-09-22T06:36:05.781Z,96207.2
2018-09-22T06:37:08.213Z,96208.4
2018-09-22T06:38:10.653Z,96202.2
2018-09-22T06:39:13.114Z,96204.5
2018-09-22T06:40:15.543Z,96206.7
2018-09-22T06:41:17.981Z,96200.3
2018-09-22T06:42:20.424Z,96199.5
2018-09-22T06:43:22.878Z,96207.2
2018-09-22T06:44:25.304Z,96206.4
2018-09-22T06:45:27.749Z,96210
2018-09-22T06:46:30.194Z,96207.2
2018-09-22T06:47:32.352Z,96206.9
2018-09-22T06:48:34.794Z,96210.1
2018-09-22T06:49:37.225Z,96206.5
2018-09-22T06:50:39.665Z,96213.1
2018-09-22T06:51:42.101Z,96213.6
2018-09-22T06:52:44.530Z,96219.1
2018-09-22T06:53:47.003Z,96219.7
2018-09-22T06:54:49.706Z,96217.3
2018-09-22T06:55:52.282Z,96214.8
2018-09-22T06:56:54.716Z,96223.2
2018-09-22T06:59:05.790Z,96215.9
2018-09-22T07:00:08.237Z,96218.3
2018-09-22T07:01:10.675Z,96219.2
2018-09-22T07:02:12.809Z,96222.2
2018-09-22T07:03:15.249Z,96226.1
2018-09-22T07:04:17.417Z,96222.8
2018-09-22T07:05:19.848Z,96223.4
2018-09-22T07:06:22.554Z,96224.3
2018-09-22T07:07:25.114Z,96215.6
2018-09-22T07:08:27.548Z,96215.3
2018-09-22T07:09:29.752Z,96217.2
2018-09-22T07:10:32.189Z,96221
2018-09-22T07:11:34.358Z,96224.9
2018-09-22T07:12:36.515Z,96226
2018-09-22T07:13:39.062Z,96230.4
2018-09-22T07:14:41.206Z,96231.3
2018-09-22T07:15:43.641Z,96236.8
2018-09-22T07:16:46.087Z,96231.5
2018-09-22T07:17:48.251Z,96231.8
2018-09-22T07:18:50.693Z,96230.7
2018-09-22T07:19:53.132Z,96232.8
2018-09-22T07:20:55.573Z,96231.6
2018-09-22T07:21:58.012Z,96232.5
2018-09-22T07:23:00.480Z,96225.9
2018-09-22T07:24:02.906Z,96234.5
2018-09-22T07:25:05.353Z,96231
2018-09-22T07:26:07.812Z,96234.5
2018-09-22T07:27:09.975Z,96234.3
2018-09-22T07:28:12.433Z,96235
2018-09-22T07:29:14.856Z,96239.3
2018-09-22T07:30:17.287Z,96235.1
2018-09-22T07:31:19.718Z,96233.2
2018-09-22T07:32:22.173Z,96233.1
2018-09-22T07:33:23.491Z,96236
2018-09-22T07:34:25.946Z,96235.1
2018-09-22T07:35:28.106Z,96238.7
2018-09-22T07:36:30.255Z,96239.9
2018-09-22T07:37:32.714Z,96241.9
2018-09-22T07:38:35.149Z,96245.4
2018-09-22T07:39:37.315Z,96245.4
2018-09-22T07:40:39.760Z,96244.2
2018-09-22T07:41:42.202Z,96243.6
2018-09-22T07:42:44.640Z,96243.2
2018-09-22T07:43:47.105Z,96241.3
2018-09-22T07:44:49.525Z,96242
2018-09-22T07:45:52.530Z,96243.7
2018-09-22T07:46:55.195Z,96246.3
2018-09-22T07:47:57.630Z,96252.8
2018-09-22T07:48:59.805Z,96248.9
2018-09-22T07:50:02.299Z,96252.1
2018-09-22T07:51:04.741Z,96258
2018-09-22T07:52:07.187Z,96257.4
2018-09-22T07:53:09.674Z,96260.7
2018-09-22T07:54:12.135Z,96256.1
2018-09-22T07:55:14.569Z,96256.3
2018-09-22T07:56:16.998Z,96250.3
2018-09-22T07:57:19.602Z,96253
2018-09-22T07:58:22.040Z,96245
2018-09-22T07:59:24.473Z,96248.5
2018-09-22T08:00:27.386Z,96247.4
2018-09-22T08:01:30.001Z,96248.8
2018-09-22T08:02:32.138Z,96252.6
2018-09-22T08:03:34.568Z,96252.8
2018-09-22T08:04:37.006Z,96255.1
2018-09-22T08:05:39.452Z,96260.4
2018-09-22T08:06:41.885Z,96262.3
2018-09-22T08:07:44.350Z,96262.6
2018-09-22T08:08:46.544Z,96260.5
2018-09-22T08:09:49.010Z,96259.2
2018-09-22T08:10:51.521Z,96264.9
2018-09-22T08:11:53.998Z,96262.3
2018-09-22T08:12:56.428Z,96265.7
2018-09-22T08:13:58.868Z,96270.2
2018-09-22T08:15:01.298Z,96264.4
2018-09-22T08:16:03.749Z,96262
2018-09-22T08:17:06.181Z,96256.4
2018-09-22T08:18:08.648Z,96253.3
2018-09-22T08:19:11.094Z,96251.5
2018-09-22T08:20:13.530Z,96256.8
2018-09-22T08:21:15.979Z,96253.2
2018-09-22T08:22:18.432Z,96259.1
2018-09-22T08:23:20.881Z,96259.4
2018-09-22T08:24:23.337Z,96258.9
2018-09-22T08:25:25.839Z,96269
2018-09-22T08:26:28.278Z,96268.4
2018-09-22T08:27:30.710Z,96268.6
2018-09-22T08:28:33.146Z,96267
2018-09-22T08:29:35.578Z,96268.3
2018-09-22T08:30:38.035Z,96272.7
2018-09-22T08:31:40.483Z,96272.3
2018-09-22T08:32:42.649Z,96270.4
2018-09-22T08:33:44.824Z,96266.1
2018-09-22T08:34:47.275Z,96260.2
2018-09-22T08:35:49.739Z,96259.9
2018-09-22T08:36:52.443Z,96260
2018-09-22T08:37:55.143Z,96258.7
2018-09-22T08:38:57.597Z,96256
2018-09-22T08:39:59.773Z,96250.7
2018-09-22T08:41:02.214Z,96248.9
2018-09-22T08:42:04.648Z,96243.8
2018-09-22T08:43:07.089Z,96248.2
2018-09-22T08:44:09.519Z,96249.3
2018-09-22T08:45:11.980Z,96251.3
2018-09-22T08:46:14.143Z,96248.7
2018-09-22T08:47:16.581Z,96244.4
2018-09-22T08:48:19.025Z,96253
2018-09-22T08:49:21.469Z,96251.1
2018-09-22T08:50:23.970Z,96255.9
2018-09-22T08:51:26.402Z,96257.4
2018-09-22T08:52:28.824Z,96258.4
2018-09-22T08:53:31.262Z,96259.9
2018-09-22T08:54:33.696Z,96255.2
2018-09-22T08:55:36.175Z,96257.7
2018-09-22T08:56:38.340Z,96260.8
2018-09-22T08:57:40.878Z,96263.1
2018-09-22T08:58:43.033Z,96263.4
2018-09-22T08:59:45.467Z,96262.9
2018-09-22T09:00:47.911Z,96255.5
2018-09-22T09:01:50.062Z,96251.5
2018-09-22T09:02:52.220Z,96256.1
2018-09-22T09:03:54.656Z,96255.1
2018-09-22T09:04:57.270Z,96247.6
2018-09-22T09:06:00.034Z,96248.6
2018-09-22T09:07:02.469Z,96240.7
2018-09-22T09:08:04.908Z,96239.4
2018-09-22T09:09:07.073Z,96246.4
2018-09-22T09:10:09.521Z,96247.6
2018-09-22T09:11:11.949Z,96246.8
2018-09-22T09:12:14.121Z,96241.4
2018-09-22T09:13:16.652Z,96241.3
2018-09-22T09:14:19.215Z,96242.3
2018-09-22T09:15:21.678Z,96240.5
2018-09-22T09:16:24.113Z,96239.4
2018-09-22T09:17:26.544Z,96238.8
2018-09-22T09:18:29.012Z,96237.4
2018-09-22T09:19:31.455Z,96235.7
2018-09-22T09:20:33.892Z,96237.6
2018-09-22T09:21:36.051Z,96231.4
2018-09-22T09:22:38.196Z,96228.8
2018-09-22T09:23:40.635Z,96226.1
2018-09-22T09:24:43.076Z,96228
2018-09-22T09:25:45.541Z,96232.6
2018-09-22T09:26:47.971Z,96234.5
2018-09-22T09:27:50.399Z,96231.9
2018-09-22T09:28:52.837Z,96229
2018-09-22T09:29:55.262Z,96225.7
2018-09-22T09:30:57.718Z,96221.6
2018-09-22T09:32:00.142Z,96218.7
2018-09-22T09:33:02.268Z,96219.4
2018-09-22T09:34:04.709Z,96223
2018-09-22T09:35:07.136Z,96215.2
2018-09-22T09:36:09.566Z,96218.6
2018-09-22T09:37:12.008Z,96222.8
2018-09-22T09:38:14.445Z,96227.8
2018-09-22T09:39:16.912Z,96223.4
2018-09-22T09:40:19.369Z,96224.8
2018-09-22T09:41:21.812Z,96227.8
2018-09-22T09:42:24.250Z,96229.6
2018-09-22T09:43:26.976Z,96230.1
2018-09-22T09:44:29.633Z,96229.8
2018-09-22T09:45:32.078Z,96234.6
2018-09-22T09:46:34.508Z,96235.9
2018-09-22T09:47:36.942Z,96239.3
2018-09-22T09:48:39.369Z,96231.6
2018-09-22T09:49:41.798Z,96232.9
2018-09-22T09:50:43.967Z,96233.3
2018-09-22T09:51:46.396Z,96228.8
2018-09-22T09:52:48.821Z,96230.7
2018-09-22T09:53:51.258Z,96230.3
2018-09-22T09:54:53.758Z,96231
2018-09-22T09:55:56.285Z,96231.6
2018-09-22T09:56:58.726Z,96227.2
2018-09-22T09:58:01.165Z,96219.6
2018-09-22T09:59:03.606Z,96221.9
2018-09-22T10:00:06.038Z,96219.3
2018-09-22T10:01:08.209Z,96222.1
2018-09-22T10:02:10.662Z,96219.9
2018-09-22T10:03:12.854Z,96212.1
2018-09-22T10:04:15.391Z,96212.6
2018-09-22T10:05:17.909Z,96214.2
2018-09-22T10:06:20.350Z,96216.6
2018-09-22T10:07:22.796Z,96220
2018-09-22T10:08:25.226Z,96221.8
2018-09-22T10:09:27.392Z,96226.5
2018-09-22T10:10:29.835Z,96224.6
2018-09-22T10:11:32.266Z,96223.8
2018-09-22T10:12:34.694Z,96222.8
2018-09-22T10:13:37.128Z,96224.7
2018-09-22T10:14:39.560Z,96223.9
2018-09-22T10:15:41.995Z,96221.5
2018-09-22T10:16:44.429Z,96214.1
2018-09-22T10:17:46.867Z,96215
2018-09-22T10:18:49.307Z,96210.5
2018-09-22T10:19:51.734Z,96208.8
2018-09-22T10:20:53.884Z,96209.3
2018-09-22T10:21:56.308Z,96210.7
2018-09-22T10:22:58.741Z,96217.6
2018-09-22T10:24:01.209Z,96215.5
2018-09-22T10:25:03.366Z,96215.9
2018-09-22T10:26:05.815Z,96215.2
2018-09-22T10:27:07.970Z,96213
2018-09-22T10:28:10.671Z,96210.4
2018-09-22T10:29:13.226Z,96207.5
2018-09-22T10:30:15.391Z,96202.5
2018-09-22T10:31:17.830Z,96203.9
2018-09-22T10:32:20.266Z,96208.7
2018-09-22T10:33:22.701Z,96211.4
2018-09-22T10:34:25.128Z,96208.7
2018-09-22T10:35:27.568Z,96210
2018-09-22T10:36:30.007Z,96211.6
2018-09-22T10:37:32.447Z,96210.5
2018-09-22T10:38:34.884Z,96207.2
2018-09-22T10:39:37.402Z,96203.4
2018-09-22T10:40:39.940Z,96201.1
2018-09-22T10:41:42.377Z,96202.1
2018-09-22T10:42:44.808Z,96196.6
2018-09-22T10:43:47.243Z,96196.3
2018-09-22T10:44:49.689Z,96192.6
2018-09-22T10:45:51.872Z,96191
2018-09-22T10:46:54.317Z,96188
2018-09-22T10:47:56.476Z,96186.9
2018-09-22T10:48:58.962Z,96184.8
2018-09-22T10:50:01.454Z,96186.2
2018-09-22T10:51:03.894Z,96185.6
2018-09-22T10:52:06.322Z,96188.9
2018-09-22T10:53:09.351Z,96185.6
2018-09-22T10:54:11.865Z,96183.4
2018-09-22T10:55:14.290Z,96182.3
2018-09-22T10:56:16.736Z,96180.8
2018-09-22T10:57:22.073Z,96183.4
2018-09-22T10:58:24.570Z,96183.6
2018-09-22T10:59:27.043Z,96175.7
2018-09-22T11:00:29.497Z,96173.6
2018-09-22T11:01:31.929Z,96169.4
2018-09-22T11:02:34.262Z,96168.3
2018-09-22T11:03:37.662Z,96165.8
2018-09-22T11:04:40.468Z,96157.3
2018-09-22T11:05:42.921Z,96161.4
2018-09-22T11:06:45.358Z,96161.6
2018-09-22T11:07:47.789Z,96168.6
2018-09-22T11:08:50.230Z,96167.1
2018-09-22T11:09:52.668Z,96168.8
2018-09-22T11:10:55.099Z,96167
2018-09-22T11:11:57.540Z,96163.3
2018-09-22T11:12:59.973Z,96165
2018-09-22T11:14:02.419Z,96163
2018-09-22T11:15:04.854Z,96167.3
2018-09-22T11:16:07.296Z,96163.3
2018-09-22T11:17:09.722Z,96161.2
2018-09-22T11:18:12.174Z,96159.6
2018-09-22T11:19:14.602Z,96151.8
2018-09-22T11:20:17.038Z,96152.6
2018-09-22T11:21:19.174Z,96149.4
2018-09-22T11:22:21.618Z,96145.8
2018-09-22T11:23:24.051Z,96141.2
2018-09-22T11:24:26.504Z,96140.4
2018-09-22T11:25:28.930Z,96135.8
2018-09-22T11:26:31.361Z,96136
2018-09-22T11:27:33.787Z,96142.7
2018-09-22T11:28:36.216Z,96138.8
2018-09-22T11:29:38.662Z,96134.8
2018-09-22T11:30:41.105Z,96134.6
2018-09-22T11:31:43.547Z,96129.5
2018-09-22T11:32:46.528Z,96123.3
2018-09-22T11:33:49.194Z,96124.1
2018-09-22T11:34:51.626Z,96121.9
2018-09-22T11:35:54.058Z,96118.8
2018-09-22T11:36:56.231Z,96115
2018-09-22T11:37:58.682Z,96114.7
2018-09-22T11:39:00.842Z,96117.2
2018-09-22T11:40:03.278Z,96120.6
2018-09-22T11:41:05.746Z,96125.9
2018-09-22T11:42:08.191Z,96123.9
2018-09-22T11:43:10.630Z,96117.9
2018-09-22T11:44:13.069Z,96117.6
2018-09-22T11:45:15.498Z,96121.3
2018-09-22T11:46:18.056Z,96123.4
2018-09-22T11:47:20.631Z,96121.5
2018-09-22T11:48:23.071Z,96124.1
2018-09-22T11:49:25.217Z,96120.9
2018-09-22T11:50:27.659Z,96118.5
2018-09-22T11:51:30.086Z,96112.6
2018-09-22T11:52:32.521Z,96111.9
2018-09-22T11:53:34.955Z,96110.6
2018-09-22T11:54:37.130Z,96114.8
2018-09-22T11:55:39.572Z,96110.9
2018-09-22T11:56:42.018Z,96111.1
2018-09-22T11:57:44.455Z,96116.3
2018-09-22T11:58:46.884Z,96110.3
2018-09-22T11:59:49.328Z,96111.8
2018-09-22T12:00:51.777Z,96113.6
2018-09-22T12:01:54.067Z,96111.8
2018-09-22T12:02:56.530Z,96116.4
2018-09-22T12:03:58.968Z,96118.9
2018-09-22T12:05:01.426Z,96115.7
2018-09-22T12:06:04.241Z,96111.3
2018-09-22T12:07:06.854Z,96110.7
2018-09-22T12:08:09.305Z,96116.8
2018-09-22T12:09:11.768Z,96120.7
2018-09-22T12:10:13.965Z,96120.1
2018-09-22T12:11:16.389Z,96114.3
2018-09-22T12:12:18.836Z,96114
2018-09-22T12:13:21.292Z,96115.5
2018-09-22T12:14:23.728Z,96119
2018-09-22T12:15:26.187Z,96120.2
2018-09-22T12:16:28.361Z,96117.8
2018-09-22T12:17:30.516Z,96118.2
2018-09-22T12:18:32.947Z,96111.9
2018-09-22T12:19:35.386Z,96105.7
2018-09-22T12:20:37.832Z,96099.3
2018-09-22T12:21:40.284Z,96094.7
2018-09-22T12:22:42.732Z,96090.3
2018-09-22T12:23:45.156Z,96095.4
2018-09-22T12:24:47.070Z,96090.4
2018-09-22T12:25:49.500Z,96091.7
2018-09-22T12:26:51.938Z,96088.6
2018-09-22T12:27:54.410Z,96088.3
2018-09-22T12:28:56.865Z,96081.8
2018-09-22T12:29:59.303Z,96083.3
2018-09-22T12:31:01.492Z,96079.4
2018-09-22T12:32:04.371Z,96083.4
2018-09-22T12:33:07.040Z,96081.5
2018-09-22T12:34:09.192Z,96077.3
2018-09-22T12:35:11.624Z,96071.3
2018-09-22T12:36:13.769Z,96072.9
2018-09-22T12:37:15.949Z,96067.7
2018-09-22T12:38:18.377Z,96063.3
2018-09-22T12:39:20.812Z,96058.1
2018-09-22T12:40:23.239Z,96059.2
2018-09-22T12:41:25.679Z,96054.1